Time;durP1;ratioP1;P1;durP2;ratioP2;P2;SDS_P1;SDS_P2;PMS_P1;PMS_P2;Temp;Humidity;BMP_temperature;BMP_pressure;BME280_temperature;BME280_humidity;BME280_pressure;Samples;Min_cycle;Max_cycle;Signal;HPM_P1;HPM_P2
2021/04/04 00:00:23;;;;;;;21.05;10.70;;;;;;;2.21;76.37;100514.43;1697843;84;21194;-68
2021/04/04 00:02:57;;;;;;;19.37;11.33;;;;;;;2.18;76.52;100514.58;1744265;82;21811;-67
2021/04/04 00:05:30;;;;;;;19.45;11.30;;;;;;;2.16;76.59;100519.83;1743744;82;21319;-68
2021/04/04 00:08:03;;;;;;;17.67;10.10;;;;;;;2.14;76.65;100519.52;1742498;82;21830;-67
2021/04/04 00:10:36;;;;;;;16.10;9.50;;;;;;;2.10;76.61;100521.44;1707844;84;21667;-67
2021/04/04 00:13:10;;;;;;;13.00;7.55;;;;;;;2.07;76.55;100509.97;1745399;82;21771;-68
2021/04/04 00:15:43;;;;;;;14.30;7.67;;;;;;;2.04;76.54;100513.53;1743988;82;21227;-67
2021/04/04 00:18:16;;;;;;;8.53;5.60;;;;;;;1.99;76.62;100514.21;1739975;82;22098;-67
2021/04/04 00:20:50;;;;;;;28.17;14.78;;;;;;;1.97;76.83;100513.45;1737665;82;21134;-67
2021/04/04 00:23:23;;;;;;;16.48;10.08;;;;;;;1.96;76.89;100519.52;1741477;82;21232;-67
2021/04/04 00:25:56;;;;;;;18.73;11.03;;;;;;;1.91;76.82;100525.36;1717956;83;21137;-68
2021/04/04 00:28:29;;;;;;;28.27;16.45;;;;;;;1.90;77.08;100531.45;1740760;82;21279;-67
2021/04/04 00:31:03;;;;;;;35.85;18.42;;;;;;;1.91;77.20;100536.98;1706273;82;21283;-67
2021/04/04 00:33:36;;;;;;;201.67;58.73;;;;;;;1.90;77.21;100535.77;1756554;82;21133;-67
2021/04/04 00:36:09;;;;;;;66.95;23.83;;;;;;;1.90;77.28;100540.94;1722871;83;21772;-67
2021/04/04 00:38:43;;;;;;;19.55;10.60;;;;;;;1.91;77.22;100546.02;1749053;82;21132;-67
2021/04/04 00:41:16;;;;;;;13.90;7.90;;;;;;;1.90;77.21;100547.39;1750642;82;22164;-67
2021/04/04 00:43:49;;;;;;;17.23;10.07;;;;;;;1.89;77.16;100554.30;1748322;82;21164;-66
2021/04/04 00:46:23;;;;;;;20.70;11.22;;;;;;;1.89;77.11;100558.17;1741140;82;21320;-67
2021/04/04 00:48:56;;;;;;;21.52;13.75;;;;;;;1.87;77.11;100558.70;1738131;82;21200;-67
2021/04/04 00:51:30;;;;;;;23.73;12.57;;;;;;;1.85;77.07;100564.39;1738440;82;21181;-67
2021/04/04 00:54:04;;;;;;;;;;;;;;;1.82;77.13;100561.95;1744785;82;21747;-67
2021/04/04 00:56:36;;;;;;;51.48;24.40;;;;;;;1.80;77.16;100558.61;1745156;82;20230;-67
2021/04/04 00:59:09;;;;;;;34.97;18.57;;;;;;;1.79;77.21;100563.38;1743428;81;21243;-65
2021/04/04 01:01:42;;;;;;;38.45;21.05;;;;;;;1.77;77.13;100564.36;1735311;83;21238;-65
2021/04/04 01:04:15;;;;;;;41.43;24.70;;;;;;;1.76;77.14;100564.84;1740536;82;22090;-65
2021/04/04 01:06:48;;;;;;;41.42;24.18;;;;;;;1.76;77.08;100566.58;1735077;83;21257;-65
2021/04/04 01:09:21;;;;;;;29.27;17.00;;;;;;;1.73;77.06;100568.85;1739919;82;21339;-66
2021/04/04 01:12:26;;;;;;;28.92;14.95;;;;;;;1.72;77.03;100563.30;1733669;83;21125;-67
2021/04/04 01:15:10;;;;;;;18.37;10.10;;;;;;;1.70;77.01;100566.86;1738935;82;21739;-66
2021/04/04 01:17:44;;;;;;;10.70;7.17;;;;;;;1.65;77.01;100567.55;1735210;83;21252;-66
2021/04/04 01:20:19;;;;;;;;;;;;;;;1.65;77.19;100574.01;1741344;82;22111;-66
2021/04/04 01:23:05;;;;;;;19.92;10.00;;;;;;;1.67;77.35;100567.02;1735066;83;20192;-67
2021/04/04 01:26:08;;;;;;;21.55;11.88;;;;;;;1.68;77.42;100562.23;1739754;82;21697;-67
2021/04/04 01:28:43;;;;;;;21.37;10.75;;;;;;;1.71;77.46;100562.94;1743407;82;21295;-68
2021/04/04 01:31:16;;;;;;;21.75;12.98;;;;;;;1.73;77.46;100558.98;1744178;82;21510;-65
2021/04/04 01:33:50;;;;;;;14.63;9.20;;;;;;;1.76;77.43;100564.00;1745128;82;21295;-66
2021/04/04 01:36:24;;;;;;;15.83;10.00;;;;;;;1.76;77.34;100570.45;1744115;82;21299;-66
2021/04/04 01:38:57;;;;;;;24.05;12.18;;;;;;;1.76;77.18;100579.04;1744921;82;21251;-65
2021/04/04 01:41:32;;;;;;;46.97;25.60;;;;;;;1.72;76.91;100584.42;1744213;82;21173;-65
2021/04/04 01:44:12;;;;;;;33.67;18.32;;;;;;;1.64;76.85;100584.78;1745005;82;21314;-66
2021/04/04 01:46:47;;;;;;;35.43;19.17;;;;;;;1.54;76.97;100578.81;1744369;82;21339;-66
2021/04/04 01:49:20;;;;;;;37.70;19.30;;;;;;;1.50;77.15;100572.98;1744836;82;22024;-65
2021/04/04 01:51:53;;;;;;;17.37;9.40;;;;;;;1.48;77.29;100567.02;1744116;82;21825;-65
2021/04/04 01:54:26;;;;;;;9.68;5.70;;;;;;;1.48;77.35;100570.89;1745132;82;21168;-65
2021/04/04 01:57:00;;;;;;;24.53;13.47;;;;;;;1.47;77.28;100579.56;1743684;82;21818;-68
2021/04/04 01:59:34;;;;;;;59.15;27.87;;;;;;;1.45;77.28;100580.54;1707838;83;21174;-66
2021/04/04 02:02:07;;;;;;;37.67;19.62;;;;;;;1.44;77.32;100578.84;1738126;82;21680;-66
2021/04/04 02:04:41;;;;;;;18.62;10.78;;;;;;;1.44;77.38;100582.72;1702248;84;21779;-66
2021/04/04 02:07:15;;;;;;;;;;;;;;;1.44;77.53;100580.98;1746612;81;21169;-66
2021/04/04 02:09:48;;;;;;;15.50;7.92;;;;;;;1.44;77.64;100578.84;1742074;82;20605;-66
2021/04/04 02:12:21;;;;;;;;;;;;;;;1.42;77.76;100573.77;1705330;84;21162;-66
2021/04/04 02:14:53;;;;;;;37.40;18.50;;;;;;;1.44;77.67;100581.43;1705914;84;20601;-66
2021/04/04 02:17:26;;;;;;;42.03;20.50;;;;;;;1.41;77.53;100575.95;1739360;82;21302;-66
2021/04/04 02:19:59;;;;;;;30.83;15.03;;;;;;;1.42;77.46;100574.22;1701582;84;21269;-66
2021/04/04 02:22:34;;;;;;;26.23;13.62;;;;;;;1.43;77.31;100579.78;1730904;82;22164;-66
2021/04/04 02:25:12;;;;;;;30.27;18.23;;;;;;;1.41;77.20;100577.25;1744994;82;21295;-66
2021/04/04 02:27:45;;;;;;;29.12;16.20;;;;;;;1.40;77.13;100582.05;1743661;82;21723;-66
2021/04/04 02:30:18;;;;;;;;;;;;;;;1.39;76.99;100576.48;1746037;82;21319;-66
2021/04/04 02:33:14;;;;;;;60.23;28.57;;;;;;;1.38;76.84;100575.64;1738412;82;20587;-66
2021/04/04 02:35:48;;;;;;;45.63;23.67;;;;;;;1.38;76.78;100582.57;1704961;84;21312;-66
2021/04/04 02:38:40;;;;;;;18.87;11.22;;;;;;;1.38;76.75;100579.52;1744796;82;21263;-67
2021/04/04 02:41:13;;;;;;;15.85;9.85;;;;;;;1.42;76.63;100584.09;1743456;82;21780;-66
2021/04/04 02:43:46;;;;;;;16.82;8.88;;;;;;;1.43;76.58;100579.33;1743610;82;21783;-66
2021/04/04 02:46:21;;;;;;;;;;;;;;;1.43;76.32;100574.17;1700863;84;21324;-65
2021/04/04 02:49:02;;;;;;;19.45;11.90;;;;;;;1.44;76.13;100573.25;1685782;85;20253;-65
2021/04/04 02:51:43;;;;;;;19.02;11.97;;;;;;;1.44;76.13;100575.83;1704715;84;21844;-67
2021/04/04 02:54:20;;;;;;;21.57;11.28;;;;;;;1.49;76.11;100578.19;1688515;85;21872;-66
2021/04/04 02:56:54;;;;;;;20.95;12.00;;;;;;;1.52;76.00;100578.05;1734484;83;21177;-65
2021/04/04 02:59:36;;;;;;;21.60;11.97;;;;;;;1.52;75.79;100584.50;1737025;82;21315;-66
2021/04/04 03:02:09;;;;;;;16.25;8.93;;;;;;;1.49;75.56;100572.58;1692503;84;21310;-65
2021/04/04 03:04:43;;;;;;;17.35;10.20;;;;;;;1.51;75.47;100582.81;1757204;81;21180;-66
2021/04/04 03:07:19;;;;;;;20.27;11.00;;;;;;;1.54;75.41;100587.84;1744952;82;21255;-66
2021/04/04 03:09:53;;;;;;;15.93;9.60;;;;;;;1.59;75.27;100590.61;1739717;82;21236;-65
2021/04/04 03:12:27;;;;;;;17.35;10.00;;;;;;;1.63;75.10;100593.41;1694775;84;21737;-66
2021/04/04 03:15:02;;;;;;;21.48;11.48;;;;;;;1.70;74.96;100592.66;1727092;82;21129;-66
2021/04/04 03:17:35;;;;;;;;;;;;;;;1.76;74.83;100598.84;1699695;84;21194;-66
2021/04/04 03:20:12;;;;;;;31.40;16.23;;;;;;;1.82;74.79;100603.25;1745480;82;20164;-66
2021/04/04 03:22:46;;;;;;;40.15;21.42;;;;;;;1.88;74.86;100598.27;1744748;82;21588;-66
2021/04/04 03:25:19;;;;;;;24.55;13.98;;;;;;;1.97;74.82;100603.83;1741722;82;21220;-67
2021/04/04 03:27:53;;;;;;;26.42;13.55;;;;;;;2.07;74.69;100611.13;1692948;84;21194;-66
2021/04/04 03:30:35;;;;;;;42.85;19.82;;;;;;;2.17;74.56;100612.36;1757856;81;21786;-65
2021/04/04 03:33:09;;;;;;;42.55;20.40;;;;;;;2.26;74.36;100615.33;1741439;82;21776;-65
2021/04/04 03:35:43;;;;;;;41.50;21.35;;;;;;;2.35;74.18;100614.88;1686845;85;21784;-65
2021/04/04 03:38:18;;;;;;;30.25;16.57;;;;;;;2.48;73.89;100609.95;1738851;82;21372;-65
2021/04/04 03:40:51;;;;;;;80.10;35.20;;;;;;;2.59;73.45;100612.81;1703961;84;21312;-64
2021/04/04 03:43:31;;;;;;;50.38;21.42;;;;;;;2.67;73.12;100617.96;1741688;82;21233;-65
2021/04/04 03:46:06;;;;;;;34.30;17.05;;;;;;;2.77;72.90;100620.92;1704660;84;21276;-66
2021/04/04 03:48:40;;;;;;;41.85;18.20;;;;;;;2.89;72.65;100615.61;1744260;82;21200;-65
2021/04/04 03:51:12;;;;;;;;;;;;;;;3.00;72.38;100624.48;1745300;82;21275;-65
2021/04/04 03:53:46;;;;;;;26.95;11.73;;;;;;;3.09;72.10;100616.69;1738691;82;20562;-66
2021/04/04 03:56:36;;;;;;;33.40;15.20;;;;;;;3.12;71.74;100615.23;1705507;84;21300;-65
2021/04/04 03:59:12;;;;;;;37.88;18.82;;;;;;;3.12;71.46;100618.67;1743711;82;21276;-67
2021/04/04 04:01:47;;;;;;;30.97;17.05;;;;;;;3.15;71.04;100619.78;1744885;82;21724;-66
2021/04/04 04:04:20;;;;;;;26.42;12.98;;;;;;;3.20;70.69;100620.86;1739455;82;21222;-66
2021/04/04 04:06:54;;;;;;;19.77;11.65;;;;;;;3.25;70.48;100619.67;1699840;84;21321;-66
2021/04/04 04:09:27;;;;;;;25.27;14.07;;;;;;;3.36;70.22;100622.55;1739853;82;21831;-66
2021/04/04 04:12:00;;;;;;;27.25;15.10;;;;;;;3.47;70.10;100621.96;1699295;84;21831;-66
2021/04/04 04:14:33;;;;;;;26.70;13.40;;;;;;;3.60;69.87;100620.40;1741978;82;21165;-65
2021/04/04 04:17:08;;;;;;;25.50;13.65;;;;;;;3.74;69.68;100622.22;1686318;85;21321;-66
2021/04/04 04:19:41;;;;;;;35.13;17.25;;;;;;;3.94;69.56;100622.78;1738880;82;21840;-66
2021/04/04 04:22:15;;;;;;;27.02;16.17;;;;;;;4.13;69.38;100621.77;1747886;82;21144;-66
2021/04/04 04:24:50;;;;;;;30.55;17.92;;;;;;;4.29;69.01;100632.93;1743793;82;21160;-66
2021/04/04 04:27:23;;;;;;;32.67;18.67;;;;;;;4.42;68.53;100636.52;1745379;82;21747;-66
2021/04/04 04:29:56;;;;;;;29.52;18.05;;;;;;;4.54;68.13;100639.66;1739524;82;21834;-66
2021/04/04 04:32:30;;;;;;;35.00;20.12;;;;;;;4.65;67.97;100634.25;1732755;82;22053;-66
2021/04/04 04:35:04;;;;;;;;;;;;;;;4.74;67.92;100632.88;1754852;82;21275;-67
2021/04/04 04:37:39;;;;;;;38.48;19.87;;;;;;;4.85;67.81;100636.95;1753624;82;20254;-66
2021/04/04 04:40:13;;;;;;;32.53;17.70;;;;;;;4.95;67.75;100643.27;1752213;82;21263;-67
2021/04/04 04:42:49;;;;;;;43.85;20.72;;;;;;;5.03;67.73;100641.06;1738915;82;21185;-66
2021/04/04 04:45:34;;;;;;;22.45;12.75;;;;;;;5.13;67.45;100638.76;1740703;82;21346;-67
2021/04/04 04:48:08;;;;;;;36.28;22.65;;;;;;;5.22;67.31;100642.09;1740145;82;21263;-68
2021/04/04 04:50:42;;;;;;;23.02;15.68;;;;;;;5.27;66.99;100649.98;1731808;83;21233;-68
2021/04/04 04:53:16;;;;;;;26.25;15.93;;;;;;;5.31;66.80;100646.72;1741134;82;22101;-68
2021/04/04 04:55:51;;;;;;;27.48;15.65;;;;;;;5.32;66.64;100649.23;1733922;82;21284;-68
2021/04/04 04:58:24;;;;;;;23.60;13.17;;;;;;;5.35;66.65;100652.08;1741298;82;21763;-67
2021/04/04 05:01:00;;;;;;;25.72;12.82;;;;;;;5.38;66.69;100660.99;1748132;82;21256;-67
2021/04/04 05:03:33;;;;;;;18.07;11.10;;;;;;;5.42;66.55;100662.50;1739171;82;21275;-67
2021/04/04 05:06:30;;;;;;;14.38;8.95;;;;;;;5.49;66.48;100665.09;1743495;81;21803;-67
2021/04/04 05:09:04;;;;;;;27.20;17.42;;;;;;;5.56;66.15;100659.88;1734070;82;21791;-67
2021/04/04 05:11:44;;;;;;;18.75;12.37;;;;;;;5.66;65.85;100665.34;1716108;83;22103;-67
2021/04/04 05:14:17;;;;;;;12.45;8.88;;;;;;;5.67;65.66;100663.94;1682928;85;21339;-67
2021/04/04 05:16:51;;;;;;;15.15;10.03;;;;;;;5.70;65.36;100661.62;1684167;85;21308;-67
2021/04/04 05:19:24;;;;;;;18.92;11.50;;;;;;;5.68;65.44;100667.37;1683738;85;21166;-67
2021/04/04 05:21:59;;;;;;;17.27;11.60;;;;;;;5.69;65.59;100672.92;1683491;85;21740;-68
2021/04/04 05:24:32;;;;;;;17.52;8.73;;;;;;;5.72;65.46;100668.39;1683092;85;21331;-68
2021/04/04 05:27:05;;;;;;;25.40;12.18;;;;;;;5.77;65.37;100670.70;1683869;85;21200;-68
2021/04/04 05:29:39;;;;;;;16.70;8.78;;;;;;;5.77;65.28;100675.44;1684015;85;21482;-68
2021/04/04 05:32:12;;;;;;;20.90;9.50;;;;;;;5.83;65.52;100676.80;1684025;85;21304;-68
2021/04/04 05:34:45;;;;;;;15.78;9.53;;;;;;;5.95;65.23;100678.66;1683142;85;21827;-67
2021/04/04 05:37:18;;;;;;;14.37;8.97;;;;;;;6.14;65.53;100678.36;1683685;85;21336;-68
2021/04/04 05:39:51;;;;;;;18.90;13.55;;;;;;;6.35;65.10;100685.62;1684101;85;21161;-67
2021/04/04 05:42:24;;;;;;;15.63;10.00;;;;;;;6.57;64.61;100683.27;1683891;85;21320;-68
2021/04/04 05:45:01;;;;;;;12.68;8.98;;;;;;;6.78;64.19;100690.16;1683095;85;21344;-68
2021/04/04 05:47:51;;;;;;;14.63;9.15;;;;;;;6.90;63.56;100689.34;1662818;85;21906;-67
2021/04/04 05:51:00;;;;;;;23.62;12.95;;;;;;;6.94;63.11;100688.19;1682287;85;21328;-69
2021/04/04 05:54:04;;;;;;;17.50;11.05;;;;;;;7.00;62.84;100698.17;1683157;85;21257;-67
2021/04/04 05:56:53;;;;;;;14.90;8.87;;;;;;;7.06;62.77;100698.24;1683381;85;21898;-67
2021/04/04 05:59:33;;;;;;;12.28;8.85;;;;;;;7.18;62.65;100698.72;1680405;84;21751;-67
2021/04/04 06:02:40;;;;;;;12.00;8.30;;;;;;;7.30;62.86;100701.34;1681830;85;21312;-68
2021/04/04 06:06:08;;;;;;;11.50;6.83;;;;;;;7.51;62.74;100697.72;1715695;83;21320;-67
2021/04/04 06:09:17;;;;;;;11.15;6.97;;;;;;;7.71;62.18;100690.67;1711964;82;21299;-68
2021/04/04 06:12:40;;;;;;;14.13;8.00;;;;;;;7.90;61.59;100687.59;1714337;83;21586;-67
2021/04/04 06:15:35;;;;;;;12.00;7.90;;;;;;;8.03;61.38;100687.06;1691467;83;21209;-68
2021/04/04 06:18:42;;;;;;;10.10;7.05;;;;;;;8.14;61.07;100698.89;1713139;83;21188;-68
2021/04/04 06:21:40;;;;;;;10.40;6.85;;;;;;;8.30;60.95;100696.87;1711599;83;21331;-68
2021/04/04 06:24:37;;;;;;;19.90;8.00;;;;;;;8.40;60.14;100697.87;1705683;83;21322;-67
2021/04/04 06:27:26;;;;;;;13.38;8.33;;;;;;;8.45;60.08;100703.59;1711842;83;21328;-67
2021/04/04 06:30:21;;;;;;;14.03;8.15;;;;;;;8.47;59.87;100699.09;1715242;83;21732;-69
2021/04/04 06:33:27;;;;;;;11.33;6.90;;;;;;;8.49;59.77;100698.50;1715240;83;21775;-66
2021/04/04 06:36:13;;;;;;;12.90;6.87;;;;;;;8.52;59.57;100694.37;1715491;83;21664;-67
2021/04/04 06:39:22;;;;;;;18.10;7.80;;;;;;;8.57;59.40;100694.84;1714228;83;21217;-66
2021/04/04 06:42:15;;;;;;;12.03;7.78;;;;;;;8.61;59.53;100686.33;1713022;83;21256;-66
2021/04/04 06:44:55;;;;;;;12.78;8.60;;;;;;;8.72;59.35;100697.64;1710553;83;21316;-65
2021/04/04 06:47:54;;;;;;;22.32;12.78;;;;;;;8.76;59.00;100691.73;1715617;83;21269;-66
2021/04/04 06:50:27;;;;;;;12.20;7.85;;;;;;;8.74;58.96;100692.32;1706256;83;21314;-66
2021/04/04 06:53:07;;;;;;;9.80;7.55;;;;;;;8.68;58.88;100689.69;1716925;83;21717;-67
2021/04/04 06:56:01;;;;;;;13.68;8.23;;;;;;;8.65;59.14;100689.06;1716355;83;21342;-67
2021/04/04 06:58:46;;;;;;;11.70;7.67;;;;;;;8.66;59.45;100685.05;1711536;83;21228;-67
2021/04/04 07:01:59;;;;;;;11.15;7.40;;;;;;;8.71;59.04;100682.94;1714802;83;21720;-67
2021/04/04 07:04:44;;;;;;;11.65;7.80;;;;;;;8.78;59.34;100682.84;1685021;85;21188;-68
2021/04/04 07:07:41;;;;;;;13.35;8.60;;;;;;;9.00;59.32;100687.76;1686054;85;21510;-68
2021/04/04 07:10:41;;;;;;;11.65;7.90;;;;;;;9.21;58.95;100688.73;1683848;85;21233;-68
2021/04/04 07:13:37;;;;;;;11.45;8.30;;;;;;;9.44;58.52;100695.17;1681510;85;21256;-68
2021/04/04 07:16:44;;;;;;;10.50;7.20;;;;;;;9.61;57.98;100693.03;1684383;85;21217;-68
2021/04/04 07:19:40;;;;;;;10.82;7.55;;;;;;;9.83;58.03;100693.02;1685788;85;21860;-68
2021/04/04 07:22:56;;;;;;;11.00;7.15;;;;;;;10.01;57.58;100702.02;1685807;85;21304;-68
2021/04/04 07:26:02;;;;;;;16.93;7.97;;;;;;;10.03;56.96;100688.37;1682636;85;21308;-69
2021/04/04 07:28:48;;;;;;;10.25;6.80;;;;;;;9.95;57.22;100700.74;1611904;89;21373;-67
2021/04/04 07:31:39;;;;;;;10.55;6.30;;;;;;;9.96;56.86;100706.31;1635075;86;21263;-67
2021/04/04 07:34:27;;;;;;;8.78;6.78;;;;;;;9.91;56.44;100712.38;1612434;86;21388;-68
2021/04/04 07:37:17;;;;;;;13.22;6.87;;;;;;;9.89;56.72;100714.75;1615163;88;21343;-69
2021/04/04 07:40:16;;;;;;;11.65;7.67;;;;;;;9.89;56.95;100714.28;1608670;88;21272;-69
2021/04/04 07:43:03;;;;;;;11.05;7.30;;;;;;;9.86;57.03;100713.71;1625429;88;21213;-68
2021/04/04 07:45:58;;;;;;;14.83;8.48;;;;;;;9.84;57.62;100711.20;1622611;88;22185;-68
2021/04/04 07:49:02;;;;;;;12.18;7.75;;;;;;;9.88;57.65;100711.33;1624723;85;21316;-68
2021/04/04 07:51:38;;;;;;;10.98;6.42;;;;;;;9.87;57.40;100712.27;1625735;88;21221;-69
2021/04/04 07:54:17;;;;;;;14.20;7.50;;;;;;;9.80;57.29;100720.24;1621553;88;21379;-69
2021/04/04 07:57:31;;;;;;;8.75;6.20;;;;;;;9.78;57.33;100718.70;1621095;88;22085;-70
2021/04/04 08:00:10;;;;;;;9.90;6.42;;;;;;;9.70;57.48;100717.98;1609409;88;21252;-71
2021/04/04 08:03:05;;;;;;;8.65;6.50;;;;;;;9.61;57.42;100716.09;1618213;88;21502;-70
2021/04/04 08:05:44;;;;;;;10.40;6.83;;;;;;;9.50;57.67;100716.90;1617226;88;22074;-68
2021/04/04 08:08:31;;;;;;;9.55;6.35;;;;;;;9.46;58.31;100714.64;1675023;85;21383;-69
2021/04/04 08:11:22;;;;;;;11.70;6.53;;;;;;;9.45;58.53;100715.14;1673738;85;21347;-69
2021/04/04 08:14:07;;;;;;;9.40;6.53;;;;;;;9.47;58.62;100712.41;1674998;85;22002;-70
2021/04/04 08:16:59;;;;;;;24.80;12.78;;;;;;;9.45;58.11;100721.67;1674201;85;21209;-70
2021/04/04 08:20:15;;;;;;;51.13;24.55;;;;;;;9.42;58.31;100716.67;1662029;85;21531;-70
2021/04/04 08:23:29;;;;;;;35.58;19.05;;;;;;;9.36;58.88;100719.74;1679728;85;21252;-69
2021/04/04 08:27:25;;;;;;;17.42;9.88;;;;;;;9.41;59.29;100722.84;1623187;88;21432;-71
2021/04/04 08:30:31;;;;;;;16.52;10.30;;;;;;;9.52;59.80;100720.72;1591220;90;21454;-70
2021/04/04 08:33:41;;;;;;;10.30;8.03;;;;;;;9.62;59.66;100716.45;1820505;76;22981;-70
2021/04/04 08:36:17;;;;;;;13.25;8.43;;;;;;;9.64;59.77;100725.01;1780819;80;21353;-70
2021/04/04 08:39:02;;;;;;;12.43;9.03;;;;;;;9.74;59.74;100733.81;1782246;80;21310;-69
2021/04/04 08:42:19;;;;;;;11.50;7.67;;;;;;;9.81;59.91;100740.22;1781682;80;21285;-71
2021/04/04 08:45:41;;;;;;;12.68;8.35;;;;;;;9.90;59.46;100739.50;1757267;80;21641;-69
2021/04/04 08:48:45;;;;;;;10.28;7.20;;;;;;;9.95;59.02;100737.83;1782778;79;21323;-70
2021/04/04 08:52:09;;;;;;;13.22;7.65;;;;;;;9.96;58.96;100740.31;1785108;80;21331;-70
2021/04/04 08:55:11;;;;;;;10.23;7.28;;;;;;;9.99;58.12;100742.70;1783036;80;21316;-69
2021/04/04 08:58:10;;;;;;;11.28;7.58;;;;;;;9.92;57.39;100748.05;1783080;80;21225;-70
2021/04/04 09:01:16;;;;;;;11.85;8.00;;;;;;;9.80;57.26;100749.48;1782741;80;21966;-70
2021/04/04 09:04:18;;;;;;;12.03;7.75;;;;;;;9.79;57.55;100746.02;1882117;76;22550;-69
2021/04/04 09:07:27;;;;;;;13.98;8.18;;;;;;;9.68;57.10;100748.64;1814448;77;21318;-67
2021/04/04 09:10:15;;;;;;;11.15;7.78;;;;;;;9.64;56.80;100751.15;1814380;79;21181;-69
2021/04/04 09:13:18;;;;;;;15.70;8.80;;;;;;;9.59;57.18;100744.60;1814345;78;21325;-70
2021/04/04 09:16:31;;;;;;;19.60;11.48;;;;;;;9.55;57.28;100745.80;1832122;77;21294;-69
2021/04/04 09:19:48;;;;;;;15.00;9.45;;;;;;;9.54;57.46;100746.27;1841734;77;21957;-68
2021/04/04 09:22:50;;;;;;;18.82;11.50;;;;;;;9.57;57.88;100747.81;1756871;79;21200;-68
2021/04/04 09:26:02;;;;;;;12.40;9.10;;;;;;;9.55;58.05;100741.41;1813148;79;22157;-68
2021/04/04 09:28:58;;;;;;;13.10;8.60;;;;;;;9.53;58.62;100743.78;1777027;80;21490;-69
2021/04/04 09:32:03;;;;;;;12.37;6.17;;;;;;;9.53;59.00;100739.36;1774245;79;21517;-68
2021/04/04 09:34:52;;;;;;;10.48;6.83;;;;;;;9.51;58.61;100738.64;1782503;80;21566;-69
2021/04/04 09:37:33;;;;;;;13.13;8.08;;;;;;;9.53;58.27;100735.44;1766930;80;21384;-69
2021/04/04 09:40:21;;;;;;;14.13;9.03;;;;;;;9.63;58.03;100741.63;1747851;81;21521;-68
2021/04/04 09:43:21;;;;;;;13.58;8.38;;;;;;;9.68;57.95;100741.27;1719269;81;21884;-69
2021/04/04 09:46:16;;;;;;;15.70;7.53;;;;;;;9.67;58.15;100743.55;1751355;81;21491;-67
2021/04/04 09:49:00;;;;;;;12.70;7.17;;;;;;;9.63;57.14;100744.71;1739633;82;21350;-69
2021/04/04 09:51:54;;;;;;;9.50;6.08;;;;;;;9.55;56.99;100745.33;1762780;81;21493;-68
2021/04/04 09:54:41;;;;;;;9.33;6.20;;;;;;;9.46;56.83;100736.86;1762133;80;21878;-69
2021/04/04 09:57:24;;;;;;;10.95;6.22;;;;;;;9.40;56.89;100730.80;1734254;81;22696;-69
2021/04/04 10:00:30;;;;;;;7.37;5.12;;;;;;;9.38;57.53;100731.41;1761574;81;21310;-68
2021/04/04 10:03:18;;;;;;;7.15;5.12;;;;;;;9.42;57.55;100731.05;1739853;81;21949;-69
2021/04/04 10:05:59;;;;;;;7.05;4.87;;;;;;;9.51;57.34;100724.27;1717709;82;22088;-69
2021/04/04 10:08:40;;;;;;;7.40;5.08;;;;;;;9.59;57.38;100734.98;1677727;83;21514;-66
2021/04/04 10:11:22;;;;;;;12.05;5.28;;;;;;;9.68;57.40;100729.04;1684972;83;21339;-68
2021/04/04 10:14:19;;;;;;;10.65;7.03;;;;;;;9.76;57.20;100729.28;1707371;82;21284;-67
2021/04/04 10:17:08;;;;;;;9.05;5.60;;;;;;;9.75;56.32;100728.08;1712043;82;21321;-68
2021/04/04 10:19:54;;;;;;;9.98;5.25;;;;;;;9.73;55.97;100733.44;1723729;83;21191;-67
2021/04/04 10:22:27;;;;;;;10.05;5.55;;;;;;;9.76;56.32;100725.36;1677534;85;21328;-69
2021/04/04 10:25:05;;;;;;;9.20;5.60;;;;;;;9.80;57.32;100724.16;1722547;82;21338;-68
2021/04/04 10:27:39;;;;;;;9.33;5.60;;;;;;;9.82;57.94;100722.73;1709564;84;22173;-67
2021/04/04 10:30:20;;;;;;;9.28;5.10;;;;;;;9.81;58.70;100718.00;1708658;84;22198;-69
2021/04/04 10:32:52;;;;;;;8.28;3.83;;;;;;;9.81;58.94;100714.55;1674078;85;21408;-68
2021/04/04 10:35:32;;;;;;;5.47;3.30;;;;;;;9.78;59.34;100714.77;1688308;85;21319;-64
2021/04/04 10:38:13;;;;;;;15.03;6.05;;;;;;;9.73;59.42;100710.38;1698863;83;22119;-67
2021/04/04 10:40:55;;;;;;;10.35;4.12;;;;;;;9.70;59.53;100707.99;1731348;82;21359;-68
2021/04/04 10:43:51;;;;;;;9.28;3.98;;;;;;;9.68;59.96;100705.98;1731187;82;21971;-68
2021/04/04 10:46:21;;;;;;;15.23;5.47;;;;;;;9.67;60.40;100710.40;1731285;83;21617;-69
2021/04/04 10:48:55;;;;;;;17.02;5.87;;;;;;;9.70;60.18;100704.07;1703160;83;21335;-67
2021/04/04 10:51:29;;;;;;;77.20;18.37;;;;;;;9.72;60.15;100699.58;1703167;83;21368;-68
2021/04/04 10:54:03;;;;;;;24.20;6.62;;;;;;;9.73;59.96;100702.53;1723469;81;21322;-67
2021/04/04 10:56:36;;;;;;;7.40;3.33;;;;;;;9.70;59.78;100698.37;1702140;84;21870;-67
2021/04/04 10:59:09;;;;;;;18.25;6.10;;;;;;;9.70;59.86;100698.37;1674502;84;21232;-66
2021/04/04 11:01:43;;;;;;;30.43;10.75;;;;;;;9.70;60.18;100697.06;1675079;83;21200;-67
2021/04/04 11:04:16;;;;;;;;;;;;;;;9.68;60.25;100696.83;1704168;84;21282;-68
2021/04/04 11:06:49;;;;;;;26.23;11.20;;;;;;;9.62;60.52;100699.47;1701870;84;20223;-67
2021/04/04 11:09:23;;;;;;;13.20;5.97;;;;;;;9.60;60.87;100698.73;1710979;83;21321;-67
2021/04/04 11:11:59;;;;;;;14.33;6.30;;;;;;;9.63;61.62;100697.19;1724180;83;21452;-66
2021/04/04 11:14:33;;;;;;;7.95;4.40;;;;;;;9.68;61.71;100694.22;1722204;82;21304;-68
2021/04/04 11:17:06;;;;;;;16.97;6.97;;;;;;;9.73;61.89;100692.08;1710055;83;21221;-67
2021/04/04 11:19:45;;;;;;;35.55;12.18;;;;;;;9.81;61.84;100687.09;1768098;81;21223;-66
2021/04/04 11:22:22;;;;;;;18.23;7.67;;;;;;;9.88;61.42;100679.95;1747108;81;21299;-67
2021/04/04 11:25:07;;;;;;;13.18;4.60;;;;;;;9.95;61.50;100678.52;1769220;81;21267;-66
2021/04/04 11:27:50;;;;;;;18.00;7.10;;;;;;;10.01;61.56;100671.47;1768423;79;21237;-67
2021/04/04 11:30:34;;;;;;;12.90;4.40;;;;;;;10.09;61.11;100674.78;1768155;81;21367;-67
2021/04/04 11:33:23;;;;;;;28.80;10.40;;;;;;;10.14;60.67;100666.97;1768472;81;21236;-67
2021/04/04 11:36:11;;;;;;;26.80;10.08;;;;;;;10.16;60.22;100670.75;1767133;81;21315;-65
2021/04/04 11:38:59;;;;;;;17.20;7.40;;;;;;;10.15;59.97;100662.54;1768213;81;21587;-68
2021/04/04 11:41:32;;;;;;;6.85;3.10;;;;;;;10.15;59.67;100658.14;1766700;79;22121;-68
2021/04/04 11:44:37;;;;;;;8.75;2.42;;;;;;;10.22;59.74;100665.05;1768336;81;21293;-67
2021/04/04 11:47:04;;;;;;;11.75;5.15;;;;;;;10.30;59.78;100660.48;1729650;82;21239;-67
2021/04/04 11:49:55;;;;;;;8.88;3.42;;;;;;;10.38;59.28;100651.53;1767569;81;21464;-66
2021/04/04 11:52:35;;;;;;;9.45;4.90;;;;;;;10.44;58.05;100651.86;1768207;81;21338;-66
2021/04/04 11:55:09;;;;;;;10.28;5.37;;;;;;;10.50;57.90;100653.15;1767920;81;21975;-68
2021/04/04 11:57:44;;;;;;;11.22;5.70;;;;;;;10.59;57.54;100644.53;1768391;81;21182;-69
2021/04/04 12:00:25;;;;;;;13.03;5.70;;;;;;;10.68;57.22;100653.77;1768012;81;21197;-69
2021/04/04 12:03:01;;;;;;;20.75;7.50;;;;;;;10.78;57.12;100649.91;1767610;80;21307;-66
2021/04/04 12:05:38;;;;;;;10.53;5.22;;;;;;;10.86;56.95;100644.88;1767644;81;22081;-66
2021/04/04 12:08:12;;;;;;;14.33;6.58;;;;;;;10.94;56.24;100642.42;1768301;81;21181;-67
2021/04/04 12:10:45;;;;;;;12.68;5.53;;;;;;;10.96;55.82;100641.00;1767701;81;21197;-68
2021/04/04 12:13:19;;;;;;;9.60;4.62;;;;;;;10.99;55.62;100638.94;1766669;80;22084;-67
2021/04/04 12:16:00;;;;;;;10.45;4.97;;;;;;;10.96;54.92;100634.45;1780012;79;21530;-67
2021/04/04 12:18:34;;;;;;;7.03;3.67;;;;;;;10.96;55.34;100636.60;1793509;79;21259;-67
2021/04/04 12:21:07;;;;;;;;;;;;;;;10.99;55.65;100631.55;1797902;79;22003;-67
2021/04/04 12:23:44;;;;;;;9.83;4.92;;;;;;;11.02;54.98;100631.30;1808816;79;20192;-67
2021/04/04 12:26:20;;;;;;;22.45;8.30;;;;;;;10.98;55.16;100625.98;1773384;79;21318;-67
2021/04/04 12:28:53;;;;;;;5.35;3.20;;;;;;;11.01;55.60;100627.84;1808309;79;21322;-68
2021/04/04 12:31:26;;;;;;;6.40;4.00;;;;;;;11.05;55.33;100624.03;1807699;79;21322;-65
2021/04/04 12:33:59;;;;;;;10.13;4.70;;;;;;;11.11;54.80;100618.72;1808235;79;21184;-68
2021/04/04 12:36:32;;;;;;;7.27;4.33;;;;;;;11.11;54.67;100612.17;1807367;79;21303;-68